Burns Lake, Canada
Current Conditions -  °F | °C
As of 8:00 AM on Tuesday 21 Oct 2014 (Local Time) from CYYD Reporting Station
Broken Clouds Broken Clouds  
Wind Chill: 34°   Ceiling: 14000
Heat Index: 34°   Visibility: 25mi
Dew Point: 34°   Wind: 0mph
Humidity: 100%   Direction: NA
Pressure: 29.48"   Gusts: NA
Location:  54.23°N, 125.76°W
Report Text: CYYD 211500Z 00000KT 25SM FEW030 SCT080 BKN140 01/01 A2948 RMK SC1AC2AC4 SLP996
Loading
Personal Weather Stations






























Interactive Weather Map
Tropical Storm Tracking
New forecast layout! Learn more

10-Day Weather Forecast

Advertisements
Track Severe Weather on mobile